Time;durP1;ratioP1;P1;durP2;ratioP2;P2;SDS_P1;SDS_P2;PMS_P1;PMS_P2;Temp;Humidity;BMP_temperature;BMP_pressure;BME280_temperature;BME280_humidity;BME280_pressure;Samples;Min_cycle;Max_cycle;Signal;HPM_P1;HPM_P2
2023/06/15 00:01:49;;;;;;;1.67;1.42;;;;;;;15.12;79.77;96157.31;5054682;28;20653;-68
2023/06/15 00:04:16;;;;;;;2.47;1.70;;;;;;;15.10;79.21;96154.03;5054717;28;21309;-70
2023/06/15 00:06:42;;;;;;;6.28;1.73;;;;;;;15.11;79.11;96154.84;5055907;28;20216;-69
2023/06/15 00:09:08;;;;;;;3.90;1.67;;;;;;;15.20;77.51;96156.25;5054120;28;20200;-70
2023/06/15 00:11:35;;;;;;;3.20;1.50;;;;;;;15.13;78.76;96158.09;5055343;28;20235;-69
2023/06/15 00:14:01;;;;;;;4.13;1.98;;;;;;;15.13;78.62;96153.59;5055273;28;20215;-68
2023/06/15 00:16:30;;;;;;;2.47;1.80;;;;;;;15.06;78.02;96160.78;5054972;28;20201;-70
2023/06/15 00:18:59;;;;;;;3.38;1.77;;;;;;;15.07;78.22;96162.41;5054796;28;20291;-68
2023/06/15 00:21:26;;;;;;;1.98;1.52;;;;;;;14.92;79.17;96164.47;5055164;28;20228;-70
2023/06/15 00:23:52;;;;;;;2.67;1.48;;;;;;;14.87;79.33;96164.25;5054376;28;20207;-68
2023/06/15 00:26:19;;;;;;;1.60;1.40;;;;;;;14.97;78.75;96161.16;5054572;28;20211;-69
2023/06/15 00:28:45;;;;;;;3.55;1.75;;;;;;;14.97;78.81;96164.66;5055591;28;20204;-68
2023/06/15 00:31:12;;;;;;;3.35;1.80;;;;;;;15.04;78.14;96164.66;5054239;28;20224;-69
2023/06/15 00:33:38;;;;;;;3.60;1.45;;;;;;;14.97;79.13;96167.31;5055176;28;20197;-69
2023/06/15 00:36:10;;;;;;;9.00;2.53;;;;;;;14.95;79.62;96158.72;5054664;28;20220;-68
2023/06/15 00:38:37;;;;;;;2.90;1.67;;;;;;;14.95;79.29;96169.34;5054976;28;20632;-68
2023/06/15 00:41:03;;;;;;;2.63;1.40;;;;;;;14.96;79.47;96154.25;5054541;28;20648;-70
2023/06/15 00:43:30;;;;;;;11.10;2.25;;;;;;;14.94;79.55;96162.44;5055029;28;20236;-68
2023/06/15 00:45:56;;;;;;;2.72;1.63;;;;;;;14.81;80.10;96165.06;5054845;28;21035;-69
2023/06/15 00:48:23;;;;;;;3.83;1.95;;;;;;;14.79;80.18;96167.13;5054837;28;20208;-68
2023/06/15 00:50:50;;;;;;;3.03;2.00;;;;;;;14.81;79.46;96170.38;5054640;28;20221;-69
2023/06/15 00:53:18;;;;;;;2.45;1.60;;;;;;;14.79;80.47;96172.44;5054447;28;20262;-69
2023/06/15 00:55:45;;;;;;;3.53;1.70;;;;;;;14.77;79.68;96168.34;5055072;28;20227;-70
2023/06/15 00:58:12;;;;;;;2.10;1.48;;;;;;;14.70;79.98;96175.47;5053954;28;20197;-68
2023/06/15 01:00:38;;;;;;;2.92;1.58;;;;;;;14.70;80.63;96172.81;5055236;28;20228;-68
2023/06/15 01:03:06;;;;;;;2.47;1.70;;;;;;;14.65;80.94;96176.09;5054522;28;20705;-68
2023/06/15 01:05:34;;;;;;;5.63;1.80;;;;;;;14.63;81.15;96169.34;5054415;28;20204;-69
2023/06/15 01:08:04;;;;;;;5.72;2.05;;;;;;;14.50;82.11;96168.50;5054570;28;20252;-69
2023/06/15 01:10:33;;;;;;;2.85;1.67;;;;;;;14.27;83.55;96171.56;5058255;28;20224;-69
2023/06/15 01:13:01;;;;;;;2.13;1.30;;;;;;;14.41;82.74;96173.22;5057977;28;20661;-68
2023/06/15 01:15:28;;;;;;;2.63;1.45;;;;;;;14.52;81.83;96172.59;5057861;28;20223;-68
2023/06/15 01:17:59;;;;;;;1.98;1.27;;;;;;;14.61;81.24;96168.72;5057405;28;20208;-68
2023/06/15 01:20:28;;;;;;;2.30;1.45;;;;;;;14.53;81.30;96166.28;5057651;28;20708;-70
2023/06/15 01:23:01;;;;;;;4.05;1.60;;;;;;;14.49;81.71;96170.34;5057367;28;20204;-68
2023/06/15 01:25:37;;;;;;;1.38;1.20;;;;;;;14.60;80.71;96171.59;5058743;28;20227;-68
2023/06/15 01:28:07;;;;;;;5.32;1.88;;;;;;;14.52;80.85;96169.94;5056770;28;20204;-68
2023/06/15 01:30:42;;;;;;;4.35;1.85;;;;;;;14.45;81.80;96158.53;5057197;28;20224;-68
2023/06/15 01:33:09;;;;;;;3.05;1.55;;;;;;;14.22;83.13;96167.88;5057274;28;20204;-69
2023/06/15 01:35:36;;;;;;;2.13;1.60;;;;;;;13.92;85.34;96168.38;5056895;28;20639;-69
2023/06/15 01:38:03;;;;;;;2.53;1.60;;;;;;;13.81;86.31;96167.13;5056743;28;20208;-69
2023/06/15 01:40:31;;;;;;;1.25;1.00;;;;;;;13.87;85.89;96168.94;5058292;28;20631;-69
2023/06/15 01:42:58;;;;;;;4.13;2.00;;;;;;;13.78;86.43;96164.84;5055529;28;20212;-69
2023/06/15 01:45:28;;;;;;;2.80;1.55;;;;;;;13.84;86.45;96171.19;5057903;28;20208;-69
2023/06/15 01:47:55;;;;;;;2.28;1.77;;;;;;;13.84;85.96;96171.19;5056299;28;20215;-68
2023/06/15 01:50:22;;;;;;;5.20;2.38;;;;;;;13.96;85.08;96172.25;5056754;28;20648;-68
2023/06/15 01:52:49;;;;;;;2.92;1.92;;;;;;;13.95;84.88;96160.00;5056672;28;20205;-70
2023/06/15 01:55:15;;;;;;;2.33;1.90;;;;;;;13.76;86.54;96160.75;5057611;28;20250;-68
2023/06/15 01:57:42;;;;;;;4.10;2.15;;;;;;;13.64;87.33;96163.16;5057008;28;20200;-68
2023/06/15 02:00:10;;;;;;;3.28;2.15;;;;;;;13.54;87.99;96153.94;5056241;28;20207;-69
2023/06/15 02:02:38;;;;;;;3.03;2.15;;;;;;;13.70;87.49;96156.28;5057609;28;20772;-69
2023/06/15 02:05:06;;;;;;;2.30;1.48;;;;;;;13.66;87.18;96158.50;5057688;28;20207;-69
2023/06/15 02:07:33;;;;;;;2.63;2.42;;;;;;;13.72;86.55;96160.34;5056653;28;20224;-70
2023/06/15 02:09:59;;;;;;;3.03;1.42;;;;;;;13.82;85.15;96168.72;5057004;28;20201;-69
2023/06/15 02:12:26;;;;;;;2.85;1.67;;;;;;;13.86;85.66;96164.69;5057252;28;20208;-70
2023/06/15 02:14:52;;;;;;;2.83;1.95;;;;;;;13.74;86.04;96166.25;5057081;28;20220;-68
2023/06/15 02:17:19;;;;;;;2.35;1.60;;;;;;;13.86;85.30;96162.03;5056007;28;20205;-68
2023/06/15 02:19:47;;;;;;;3.97;2.45;;;;;;;13.96;84.77;96159.81;5057008;28;20204;-68
2023/06/15 02:22:15;;;;;;;2.17;1.60;;;;;;;13.86;84.69;96162.03;5056298;28;20216;-68
2023/06/15 02:24:41;;;;;;;2.63;2.05;;;;;;;13.78;84.80;96164.84;5057330;28;20204;-70
2023/06/15 02:27:08;;;;;;;2.88;1.70;;;;;;;13.75;85.44;96169.75;5056608;28;20207;-69
2023/06/15 02:29:34;;;;;;;2.22;1.67;;;;;;;13.76;85.86;96166.06;5056046;28;20227;-70
2023/06/15 02:32:01;;;;;;;2.53;1.85;;;;;;;13.72;85.97;96170.94;5056765;28;20224;-69
2023/06/15 02:34:27;;;;;;;3.60;2.20;;;;;;;13.79;85.76;96168.31;5057232;28;20225;-68
2023/06/15 02:36:56;;;;;;;2.40;1.83;;;;;;;13.76;83.96;96166.06;5056560;28;20231;-68
2023/06/15 02:39:22;;;;;;;1.90;1.30;;;;;;;13.46;83.80;96160.22;5055755;28;20208;-70
2023/06/15 02:41:49;;;;;;;4.13;1.77;;;;;;;13.50;84.56;96165.94;5053235;28;21000;-69
2023/06/15 02:44:15;;;;;;;2.67;2.05;;;;;;;13.43;85.05;96163.28;5055731;28;20219;-68
2023/06/15 02:46:42;;;;;;;3.95;1.75;;;;;;;13.35;85.23;96162.59;5056654;28;20662;-68
2023/06/15 02:49:08;;;;;;;2.75;1.67;;;;;;;13.44;85.30;96167.56;5055865;28;20755;-68
2023/06/15 02:51:35;;;;;;;3.72;2.33;;;;;;;13.40;85.89;96170.78;5055315;28;20217;-69
2023/06/15 02:54:03;;;;;;;2.13;1.15;;;;;;;13.34;86.44;96170.75;5056634;28;20291;-70
2023/06/15 02:56:30;;;;;;;2.30;1.70;;;;;;;13.32;86.82;96178.06;5057176;28;20229;-68
2023/06/15 02:58:57;;;;;;;4.13;2.25;;;;;;;13.42;86.23;96168.75;5055420;28;20200;-69
2023/06/15 03:01:24;;;;;;;2.10;1.67;;;;;;;13.40;86.42;96171.63;5055182;28;20234;-68
2023/06/15 03:03:51;;;;;;;2.70;1.70;;;;;;;13.40;86.18;96168.97;5056484;28;20205;-68
2023/06/15 03:06:18;;;;;;;2.97;2.03;;;;;;;13.35;87.34;96169.75;5055450;28;20212;-68
2023/06/15 03:08:45;;;;;;;2.63;1.48;;;;;;;13.47;85.46;96171.66;5055412;28;20211;-68
2023/06/15 03:11:13;;;;;;;3.60;2.22;;;;;;;13.44;85.04;96178.16;5054952;28;21057;-70
2023/06/15 03:13:39;;;;;;;1.60;1.45;;;;;;;13.42;85.16;96177.50;5056520;28;20579;-68
2023/06/15 03:16:07;;;;;;;3.42;1.85;;;;;;;13.33;85.29;96191.13;5055512;28;20633;-68
2023/06/15 03:18:33;;;;;;;2.40;1.33;;;;;;;13.42;84.91;96179.34;5055579;28;20281;-68
2023/06/15 03:21:01;;;;;;;2.65;1.77;;;;;;;13.28;84.95;96182.94;5055667;28;20228;-69
2023/06/15 03:23:27;;;;;;;1.48;1.25;;;;;;;13.30;85.42;96188.88;5055910;28;20208;-69
2023/06/15 03:25:53;;;;;;;2.00;1.60;;;;;;;13.11;85.34;96194.00;5055659;28;20196;-69
2023/06/15 03:28:24;;;;;;;3.67;1.50;;;;;;;13.06;87.27;96193.75;5055097;28;20262;-68
2023/06/15 03:30:53;;;;;;;3.22;1.48;;;;;;;12.99;88.68;96193.72;5055373;28;20307;-68
2023/06/15 03:33:21;;;;;;;2.70;1.80;;;;;;;13.23;85.45;96198.56;5054819;28;20299;-68
2023/06/15 03:35:49;;;;;;;5.22;2.83;;;;;;;13.13;84.99;96199.94;5055883;28;20315;-68
2023/06/15 03:38:16;;;;;;;4.28;1.88;;;;;;;13.20;84.07;96206.91;5054839;28;20281;-68
2023/06/15 03:40:43;;;;;;;2.05;1.40;;;;;;;13.22;84.82;96214.66;5055638;28;20295;-70
2023/06/15 03:43:10;;;;;;;2.10;1.20;;;;;;;13.08;85.55;96212.91;5054003;28;20283;-68
2023/06/15 03:45:38;;;;;;;5.10;2.47;;;;;;;13.23;85.57;96221.59;5056225;28;20566;-67
2023/06/15 03:48:05;;;;;;;1.95;1.42;;;;;;;13.08;86.51;96219.03;5054986;28;20204;-69
2023/06/15 03:50:32;;;;;;;3.63;1.45;;;;;;;13.04;86.91;96227.53;5055427;28;20223;-69
2023/06/15 03:52:58;;;;;;;3.40;1.73;;;;;;;13.03;87.93;96231.19;5054172;28;20284;-69
2023/06/15 03:55:25;;;;;;;2.88;1.63;;;;;;;13.22;87.18;96226.03;5054792;28;20224;-70
2023/06/15 03:57:51;;;;;;;2.58;1.80;;;;;;;13.37;85.42;96223.31;5055114;28;20701;-68
2023/06/15 04:00:18;;;;;;;2.72;1.60;;;;;;;13.47;85.59;96219.28;5055476;28;20243;-69
2023/06/15 04:02:46;;;;;;;2.30;1.40;;;;;;;13.54;85.65;96228.06;5055541;28;20211;-68
2023/06/15 04:05:13;;;;;;;3.40;1.65;;;;;;;13.47;85.95;96230.69;5055640;28;20208;-67
2023/06/15 04:07:39;;;;;;;1.60;1.17;;;;;;;13.58;85.35;96232.81;5055604;28;20203;-68
2023/06/15 04:10:08;;;;;;;2.25;1.42;;;;;;;13.50;85.39;96232.97;5054766;28;20207;-69
2023/06/15 04:12:35;;;;;;;6.22;2.30;;;;;;;13.58;85.72;96232.81;5054594;28;20205;-69
2023/06/15 04:15:01;;;;;;;2.75;1.63;;;;;;;13.62;85.82;96234.03;5055072;28;20675;-68
2023/06/15 04:17:28;;;;;;;3.40;1.80;;;;;;;13.65;87.33;96238.94;5054476;28;20225;-69
2023/06/15 04:19:56;;;;;;;4.38;1.92;;;;;;;13.91;86.24;96239.06;5055008;28;20196;-70
2023/06/15 04:22:22;;;;;;;2.35;1.35;;;;;;;13.95;86.34;96239.50;5055682;28;20231;-69
2023/06/15 04:24:48;;;;;;;2.80;1.88;;;;;;;14.03;86.79;96237.50;5055272;28;20200;-69
2023/06/15 04:27:18;;;;;;;3.58;1.85;;;;;;;14.14;87.15;96242.25;5054567;28;20208;-70
2023/06/15 04:29:49;;;;;;;3.63;1.48;;;;;;;14.21;86.64;96235.94;5055410;28;20228;-70
2023/06/15 04:32:17;;;;;;;2.63;1.38;;;;;;;14.22;87.05;96247.38;5054981;28;20277;-68
2023/06/15 04:34:45;;;;;;;3.90;1.85;;;;;;;14.26;87.17;96248.63;5055131;28;20687;-70
2023/06/15 04:37:13;;;;;;;5.47;1.92;;;;;;;14.46;86.20;96238.88;5054593;28;20228;-69
2023/06/15 04:39:39;;;;;;;3.47;1.70;;;;;;;14.56;84.64;96242.81;5054681;28;20740;-69
2023/06/15 04:42:08;;;;;;;4.65;2.00;;;;;;;14.71;84.17;96241.59;5054919;28;20632;-69
2023/06/15 04:44:35;;;;;;;8.73;2.08;;;;;;;14.80;85.81;96247.50;5058215;28;20196;-69
2023/06/15 04:47:03;;;;;;;2.97;1.92;;;;;;;14.85;85.87;96245.88;5058960;28;20698;-69
2023/06/15 04:49:30;;;;;;;2.47;1.77;;;;;;;14.92;86.49;96249.38;5057648;28;20196;-69
2023/06/15 04:51:57;;;;;;;3.00;2.08;;;;;;;15.06;87.56;96247.53;5058076;28;21245;-70
2023/06/15 04:54:25;;;;;;;3.28;2.45;;;;;;;15.21;87.99;96253.47;5058274;28;20661;-69
2023/06/15 04:56:51;;;;;;;3.33;1.98;;;;;;;15.24;88.21;96248.59;5059262;28;20224;-68
2023/06/15 04:59:18;;;;;;;4.25;2.25;;;;;;;15.34;87.71;96252.47;5058321;28;20236;-69
2023/06/15 05:01:44;;;;;;;3.20;2.28;;;;;;;15.43;87.65;96245.09;5058751;28;20228;-68
2023/06/15 05:04:11;;;;;;;1.95;1.73;;;;;;;15.53;87.29;96250.78;5057693;28;20201;-69
2023/06/15 05:06:37;;;;;;;9.10;1.63;;;;;;;15.58;85.43;96258.94;5058974;28;20197;-69
2023/06/15 05:09:05;;;;;;;2.33;1.70;;;;;;;15.79;85.08;96262.19;5058904;28;20201;-69
2023/06/15 05:11:32;;;;;;;5.05;2.10;;;;;;;15.96;84.86;96261.53;5057542;28;20767;-69
2023/06/15 05:13:59;;;;;;;3.67;2.20;;;;;;;16.04;84.75;96258.63;5057204;28;20231;-69
2023/06/15 05:16:26;;;;;;;4.07;2.40;;;;;;;16.13;83.78;96262.69;5059166;28;20228;-70
2023/06/15 05:18:54;;;;;;;2.30;1.67;;;;;;;16.18;82.63;96264.75;5057504;28;20253;-69
2023/06/15 05:21:21;;;;;;;1.95;1.60;;;;;;;16.32;81.91;96264.50;5058074;28;20262;-69
2023/06/15 05:23:47;;;;;;;4.05;2.20;;;;;;;16.40;81.98;96266.09;5058622;28;20265;-70
2023/06/15 05:26:15;;;;;;;5.22;1.83;;;;;;;16.54;80.53;96268.47;5056535;28;20196;-70
2023/06/15 05:28:42;;;;;;;3.13;1.88;;;;;;;16.69;80.31;96271.69;5056967;28;20205;-69
2023/06/15 05:31:09;;;;;;;2.90;1.90;;;;;;;16.64;79.88;96279.47;5056977;28;20235;-71
2023/06/15 05:33:36;;;;;;;4.32;1.75;;;;;;;16.86;79.71;96286.09;5058145;28;20209;-72
2023/06/15 05:36:03;;;;;;;3.05;1.80;;;;;;;16.80;78.18;96278.97;5056637;28;20224;-71
2023/06/15 05:38:30;;;;;;;2.60;1.77;;;;;;;16.90;78.62;96287.31;5057551;28;20203;-70
2023/06/15 05:40:56;;;;;;;5.32;1.95;;;;;;;16.99;78.16;96288.69;5057317;28;20220;-71
2023/06/15 05:43:23;;;;;;;3.50;2.13;;;;;;;17.17;77.88;96290.41;5057667;28;20684;-68
2023/06/15 05:45:51;;;;;;;3.05;2.08;;;;;;;17.15;78.73;96287.13;5056574;28;20579;-70
2023/06/15 05:48:19;;;;;;;2.88;1.90;;;;;;;17.17;78.19;96298.38;5056455;28;20201;-68
2023/06/15 05:50:45;;;;;;;2.47;1.90;;;;;;;17.08;75.25;96295.38;5056940;28;20248;-73
2023/06/15 05:53:12;;;;;;;3.50;1.92;;;;;;;17.29;76.37;96298.53;5056751;28;20793;-73
2023/06/15 05:55:38;;;;;;;4.45;2.30;;;;;;;17.14;74.83;96298.84;5057219;28;20200;-72
2023/06/15 05:58:05;;;;;;;3.25;2.05;;;;;;;17.17;74.33;96297.56;5056479;28;20227;-71
2023/06/15 06:00:31;;;;;;;4.45;2.13;;;;;;;17.28;74.02;96296.91;5056489;28;20232;-72
2023/06/15 06:02:59;;;;;;;3.85;2.03;;;;;;;17.23;72.07;96300.19;5052380;28;20230;-70
2023/06/15 06:05:26;;;;;;;3.70;1.95;;;;;;;17.33;77.11;96300.53;5055379;28;20265;-70
2023/06/15 06:07:52;;;;;;;3.20;2.13;;;;;;;17.29;74.62;96296.69;5053969;28;20204;-70
2023/06/15 06:10:19;;;;;;;3.28;1.85;;;;;;;17.54;73.86;96302.84;5054825;28;20228;-69
2023/06/15 06:12:46;;;;;;;11.18;2.10;;;;;;;17.62;75.59;96302.56;5055053;28;20205;-73
2023/06/15 06:15:12;;;;;;;3.30;1.85;;;;;;;17.68;73.96;96307.03;5055012;28;20800;-69
2023/06/15 06:17:39;;;;;;;9.07;1.92;;;;;;;17.91;74.57;96308.03;5054826;28;20232;-70
2023/06/15 06:20:08;;;;;;;3.28;1.58;;;;;;;18.11;73.74;96308.63;5055791;28;20209;-71
2023/06/15 06:22:35;;;;;;;3.10;2.03;;;;;;;18.03;74.12;96308.91;5054569;28;20200;-70
2023/06/15 06:25:01;;;;;;;4.85;2.83;;;;;;;17.80;70.34;96310.59;5056491;28;20587;-73
2023/06/15 06:27:28;;;;;;;2.08;1.63;;;;;;;18.08;70.52;96308.28;5056028;28;20671;-69
2023/06/15 06:29:54;;;;;;;5.03;1.77;;;;;;;18.23;70.08;96311.41;5054266;28;20657;-72
2023/06/15 06:32:20;;;;;;;8.35;2.55;;;;;;;18.22;70.45;96317.81;5055270;28;20205;-73
2023/06/15 06:34:47;;;;;;;3.10;2.00;;;;;;;18.45;70.83;96308.06;5056455;28;20196;-69
2023/06/15 06:37:15;;;;;;;4.47;1.75;;;;;;;18.64;71.22;96305.16;5052468;28;20231;-74
2023/06/15 06:39:41;;;;;;;3.17;2.00;;;;;;;18.61;68.74;96305.63;5056127;28;21029;-74
2023/06/15 06:42:08;;;;;;;2.53;1.65;;;;;;;18.39;65.55;96307.13;5056000;28;20228;-72
2023/06/15 06:44:35;;;;;;;3.47;1.95;;;;;;;18.58;67.59;96308.75;5056782;28;20208;-73
2023/06/15 06:47:02;;;;;;;3.38;2.05;;;;;;;18.65;66.23;96306.78;5056415;28;20288;-72
2023/06/15 06:49:28;;;;;;;2.60;2.08;;;;;;;18.85;66.79;96312.69;5055835;28;20963;-72
2023/06/15 06:51:54;;;;;;;2.60;1.92;;;;;;;19.09;70.83;96299.25;5056247;28;20645;-70
2023/06/15 06:54:22;;;;;;;3.33;1.90;;;;;;;19.24;66.70;96306.81;5055518;28;20736;-70
2023/06/15 06:56:49;;;;;;;5.68;2.45;;;;;;;19.26;64.86;96307.41;5055611;28;20259;-73
2023/06/15 06:59:15;;;;;;;3.30;1.85;;;;;;;19.17;68.35;96309.59;5055021;28;20200;-70
2023/06/15 07:01:43;;;;;;;3.72;2.17;;;;;;;19.20;65.29;96306.47;5056563;28;20235;-69
2023/06/15 07:04:09;;;;;;;4.10;2.25;;;;;;;19.22;64.51;96314.22;5054310;28;20219;-71
2023/06/15 07:06:36;;;;;;;3.25;1.80;;;;;;;19.40;66.25;96312.31;5053619;28;20197;-74
2023/06/15 07:09:03;;;;;;;3.15;2.03;;;;;;;19.57;64.62;96311.41;5053219;28;20193;-73
2023/06/15 07:11:30;;;;;;;3.17;1.90;;;;;;;19.53;64.30;96312.13;5053865;28;20229;-73
2023/06/15 07:13:57;;;;;;;4.20;1.98;;;;;;;19.68;65.26;96315.97;5054055;28;20204;-71
2023/06/15 07:16:23;;;;;;;5.90;2.70;;;;;;;19.62;65.11;96311.53;5054873;28;20204;-71
2023/06/15 07:18:50;;;;;;;3.90;1.98;;;;;;;19.78;62.79;96310.88;5054483;28;20642;-70
2023/06/15 07:21:17;;;;;;;2.85;1.83;;;;;;;19.89;65.33;96312.72;5053564;28;20220;-74
2023/06/15 07:23:43;;;;;;;2.70;1.95;;;;;;;20.01;64.26;96315.41;5054815;28;20207;-73
2023/06/15 07:26:10;;;;;;;4.57;2.10;;;;;;;20.14;64.26;96317.84;5054121;28;20212;-70
2023/06/15 07:28:37;;;;;;;3.03;2.38;;;;;;;20.26;64.37;96312.28;5053995;28;20208;-73
2023/06/15 07:31:04;;;;;;;3.05;1.88;;;;;;;20.14;61.34;96315.19;5052449;28;20712;-72
2023/06/15 07:33:30;;;;;;;4.05;2.20;;;;;;;20.11;61.24;96316.50;5053682;28;20240;-68
2023/06/15 07:35:57;;;;;;;3.67;2.10;;;;;;;20.39;64.53;96309.34;5053551;28;20671;-70
2023/06/15 07:38:24;;;;;;;3.13;2.13;;;;;;;20.32;60.44;96313.19;5052560;28;20233;-70
2023/06/15 07:40:51;;;;;;;2.63;1.80;;;;;;;20.30;61.54;96316.13;5052964;28;20243;-73
2023/06/15 07:43:17;;;;;;;5.60;1.95;;;;;;;20.32;63.12;96314.00;5054510;28;20677;-73
2023/06/15 07:45:45;;;;;;;4.80;1.85;;;;;;;20.55;61.27;96313.16;5055482;28;20631;-70
2023/06/15 07:48:11;;;;;;;2.60;1.88;;;;;;;20.48;63.52;96315.97;5054911;28;20197;-69
2023/06/15 07:50:38;;;;;;;2.15;1.70;;;;;;;20.67;61.81;96313.94;5054317;28;20232;-72
2023/06/15 07:53:05;;;;;;;3.90;2.28;;;;;;;20.82;60.19;96304.38;5053170;28;21002;-74
2023/06/15 07:55:31;;;;;;;3.72;2.40;;;;;;;20.83;60.77;96307.88;5053120;28;20229;-73
2023/06/15 07:57:58;;;;;;;2.88;2.10;;;;;;;20.73;60.72;96302.31;5054538;28;20224;-69
2023/06/15 08:00:24;;;;;;;2.95;1.83;;;;;;;20.75;60.14;96303.72;5054885;28;20232;-74
2023/06/15 08:02:52;;;;;;;3.90;2.15;;;;;;;20.70;59.20;96310.81;5055964;28;20211;-72
2023/06/15 08:05:19;;;;;;;4.03;2.17;;;;;;;20.87;58.59;96299.94;5054615;28;20211;-70
2023/06/15 08:07:45;;;;;;;3.58;2.03;;;;;;;21.05;60.12;96304.28;5055254;28;20196;-73
2023/06/15 08:10:12;;;;;;;2.70;2.17;;;;;;;21.24;58.54;96303.81;5054456;28;20209;-69
2023/06/15 08:12:38;;;;;;;6.90;2.05;;;;;;;21.52;59.24;96306.50;5053482;28;20200;-71
2023/06/15 08:15:06;;;;;;;4.50;2.15;;;;;;;21.58;59.27;96300.97;5055054;28;20209;-70
2023/06/15 08:17:33;;;;;;;2.80;2.05;;;;;;;21.81;57.93;96305.38;5055128;28;20382;-74
2023/06/15 08:20:01;;;;;;;3.42;2.35;;;;;;;21.89;56.23;96313.00;5058627;28;20211;-75
2023/06/15 08:22:28;;;;;;;3.78;1.67;;;;;;;21.68;58.96;96306.50;5058272;28;20212;-69
2023/06/15 08:24:54;;;;;;;3.95;2.20;;;;;;;21.88;57.61;96306.00;5057826;28;20291;-70
2023/06/15 08:27:21;;;;;;;4.13;1.88;;;;;;;21.72;57.35;96304.16;5058069;28;20239;-73
2023/06/15 08:29:48;;;;;;;2.38;1.50;;;;;;;22.09;54.86;96308.75;5059527;28;20201;-73
2023/06/15 08:32:15;;;;;;;3.40;1.92;;;;;;;22.11;54.76;96307.47;5058307;28;20224;-71
2023/06/15 08:34:42;;;;;;;3.38;1.88;;;;;;;22.12;52.72;96303.72;5058665;28;20211;-75
2023/06/15 08:37:11;;;;;;;4.10;2.65;;;;;;;22.04;54.14;96302.53;5058872;28;20254;-73
2023/06/15 08:39:37;;;;;;;2.95;2.10;;;;;;;22.26;54.24;96299.66;5058277;28;20192;-69
2023/06/15 08:42:05;;;;;;;3.13;1.88;;;;;;;22.27;53.32;96301.25;5057596;28;20575;-70
2023/06/15 08:44:31;;;;;;;5.13;1.83;;;;;;;22.13;53.27;96299.16;5058830;28;20266;-69
2023/06/15 08:47:00;;;;;;;3.55;1.95;;;;;;;22.04;54.91;96299.84;5059010;28;20200;-71
2023/06/15 08:49:27;;;;;;;2.60;1.98;;;;;;;22.18;53.38;96299.22;5058023;28;20235;-69
2023/06/15 08:51:55;;;;;;;3.42;2.20;;;;;;;22.50;56.32;96301.03;5057129;28;20335;-69
2023/06/15 08:54:25;;;;;;;5.82;1.83;;;;;;;22.42;53.25;96298.81;5059034;28;20204;-71
2023/06/15 08:56:51;;;;;;;2.42;1.88;;;;;;;22.85;54.12;96293.44;5058482;28;20219;-70
2023/06/15 08:59:18;;;;;;;2.08;1.60;;;;;;;22.60;50.39;96300.38;5058160;28;20230;-72
2023/06/15 09:01:45;;;;;;;2.30;1.73;;;;;;;22.90;50.95;96298.88;5057934;28;20277;-71
2023/06/15 09:04:12;;;;;;;2.17;1.55;;;;;;;22.78;54.34;96300.88;5057791;28;20215;-71
2023/06/15 09:06:39;;;;;;;3.13;1.92;;;;;;;22.65;51.09;96295.88;5054838;28;20200;-71
2023/06/15 09:09:05;;;;;;;3.38;1.73;;;;;;;22.62;53.27;96299.06;5056021;28;20201;-71
2023/06/15 09:11:40;;;;;;;3.47;1.60;;;;;;;22.99;51.15;96295.50;5057808;28;20227;-71
2023/06/15 09:14:08;;;;;;;3.53;1.90;;;;;;;23.05;50.88;96291.00;5057558;28;20226;-70
2023/06/15 09:16:35;;;;;;;3.70;2.03;;;;;;;23.02;51.55;96296.88;5057483;28;20242;-70
2023/06/15 09:19:03;;;;;;;3.67;1.88;;;;;;;23.11;50.58;96293.47;5054184;28;20228;-72
2023/06/15 09:21:30;;;;;;;2.75;1.67;;;;;;;23.21;50.95;96298.16;5057188;28;20229;-71
2023/06/15 09:24:05;;;;;;;3.28;2.10;;;;;;;23.47;48.50;96290.91;5057454;28;20315;-70
2023/06/15 09:26:32;;;;;;;3.55;2.28;;;;;;;23.67;51.05;96292.94;5056002;28;20230;-72
2023/06/15 09:29:02;;;;;;;1.80;1.52;;;;;;;23.92;51.80;96291.31;5056650;28;20228;-70
2023/06/15 09:31:30;;;;;;;11.90;2.08;;;;;;;23.67;50.12;96295.63;5057657;28;20229;-71
2023/06/15 09:34:04;;;;;;;2.83;1.88;;;;;;;23.72;49.59;96301.91;5058005;28;20222;-70
2023/06/15 09:36:35;;;;;;;2.15;1.80;;;;;;;24.14;51.21;96295.47;5053680;28;20673;-70
2023/06/15 09:39:03;;;;;;;3.67;2.05;;;;;;;24.05;48.86;96290.84;5054617;28;20311;-70
2023/06/15 09:41:30;;;;;;;2.55;1.95;;;;;;;23.95;49.64;96285.41;5053855;28;20702;-71
2023/06/15 09:43:56;;;;;;;2.78;2.00;;;;;;;23.65;47.62;96290.53;5056827;28;20207;-71
2023/06/15 09:46:28;;;;;;;2.28;1.60;;;;;;;24.21;48.00;96288.00;5058096;28;20215;-71
2023/06/15 09:48:55;;;;;;;2.58;1.73;;;;;;;24.16;47.56;96292.53;5053608;28;20207;-70
2023/06/15 09:51:23;;;;;;;2.70;1.77;;;;;;;24.27;46.19;96286.94;5055401;28;20244;-71
2023/06/15 09:53:52;;;;;;;2.20;1.50;;;;;;;24.07;46.06;96286.00;5057209;28;20197;-71
2023/06/15 09:56:21;;;;;;;1.77;1.40;;;;;;;24.25;46.23;96291.81;5058236;28;20212;-70
2023/06/15 09:58:48;;;;;;;3.72;2.60;;;;;;;24.24;46.00;96294.75;5055238;28;20234;-70
2023/06/15 10:01:18;;;;;;;2.55;1.80;;;;;;;24.54;44.31;96284.16;5056447;28;20239;-69
2023/06/15 10:03:53;;;;;;;2.53;1.73;;;;;;;24.62;47.76;96282.59;5057150;28;20208;-71
2023/06/15 10:06:20;;;;;;;2.22;1.65;;;;;;;24.75;44.07;96286.69;5058219;28;20294;-71
2023/06/15 10:08:51;;;;;;;3.42;2.05;;;;;;;24.83;43.74;96284.28;5056530;28;20196;-71
2023/06/15 10:11:20;;;;;;;3.15;1.73;;;;;;;25.19;44.67;96284.19;5055027;28;20282;-70
2023/06/15 10:13:51;;;;;;;3.47;1.30;;;;;;;25.15;43.32;96287.66;5056573;28;20200;-70
2023/06/15 10:16:20;;;;;;;3.08;1.70;;;;;;;25.10;41.33;96276.06;5057283;28;20212;-72
2023/06/15 10:18:52;;;;;;;3.53;1.83;;;;;;;25.54;41.48;96280.72;5056440;28;20239;-70
2023/06/15 10:21:23;;;;;;;1.88;1.25;;;;;;;25.70;40.82;96287.75;5056740;28;20224;-71
2023/06/15 10:23:54;;;;;;;2.55;1.20;;;;;;;25.23;39.17;96287.97;5056646;28;20764;-71
2023/06/15 10:26:21;;;;;;;5.03;1.65;;;;;;;25.33;38.05;96279.88;5057434;28;20728;-70
2023/06/15 10:28:52;;;;;;;2.15;1.23;;;;;;;25.73;41.48;96284.56;5056396;28;20205;-71
2023/06/15 10:31:30;;;;;;;3.20;1.67;;;;;;;25.99;38.15;96279.69;5056121;28;20315;-70
2023/06/15 10:34:04;;;;;;;4.47;1.63;;;;;;;26.26;37.93;96280.19;5056724;28;20329;-71
2023/06/15 10:36:33;;;;;;;2.25;1.20;;;;;;;26.40;36.09;96275.88;5056818;28;20820;-71
2023/06/15 10:39:17;;;;;;;2.45;1.38;;;;;;;26.57;40.23;96271.75;5054300;28;20221;-70
2023/06/15 10:41:44;;;;;;;2.55;1.60;;;;;;;26.86;37.06;96271.88;5051788;28;20220;-71
2023/06/15 10:44:15;;;;;;;2.20;1.83;;;;;;;26.39;37.36;96279.66;5053698;28;20655;-70
2023/06/15 10:46:41;;;;;;;3.28;1.40;;;;;;;26.80;36.15;96273.03;5054348;28;20289;-72
2023/06/15 10:49:10;;;;;;;1.77;1.30;;;;;;;26.66;38.05;96275.50;5055724;28;20197;-70
2023/06/15 10:51:40;;;;;;;2.22;1.40;;;;;;;26.05;37.83;96278.56;5056622;28;20716;-71
2023/06/15 10:54:21;;;;;;;2.85;2.00;;;;;;;25.69;39.88;96286.13;5056610;28;20208;-71
2023/06/15 10:56:50;;;;;;;1.95;1.30;;;;;;;25.25;38.87;96288.53;5053571;28;20200;-71
2023/06/15 10:59:37;;;;;;;2.70;1.30;;;;;;;24.55;40.49;96288.50;5051379;28;21292;-71
2023/06/15 11:02:24;;;;;;;2.13;1.52;;;;;;;24.47;42.09;96283.59;5055186;28;20319;-71
2023/06/15 11:04:52;;;;;;;2.67;1.42;;;;;;;24.55;44.26;96283.09;5054731;28;20238;-71
2023/06/15 11:07:27;;;;;;;2.13;1.50;;;;;;;24.70;40.57;96271.31;5054886;28;20209;-70
2023/06/15 11:09:57;;;;;;;2.05;1.40;;;;;;;24.14;42.37;96279.31;5053464;28;20279;-70
2023/06/15 11:12:33;;;;;;;1.83;1.08;;;;;;;24.17;41.33;96281.53;5053571;28;20208;-71
2023/06/15 11:15:01;;;;;;;4.53;1.45;;;;;;;24.50;43.12;96283.88;5054152;28;20205;-71
2023/06/15 11:17:28;;;;;;;2.45;1.90;;;;;;;24.27;43.75;96283.44;5053016;28;20196;-71
2023/06/15 11:19:57;;;;;;;1.90;1.52;;;;;;;24.39;44.19;96281.38;5053481;28;20292;-71
2023/06/15 11:22:25;;;;;;;3.17;1.63;;;;;;;24.14;43.79;96284.72;5054076;28;20201;-72
2023/06/15 11:24:54;;;;;;;3.30;1.52;;;;;;;24.22;44.09;96286.13;5054552;28;20204;-67
2023/06/15 11:27:22;;;;;;;4.82;2.42;;;;;;;24.26;43.66;96282.66;5053109;28;20196;-72
2023/06/15 11:29:55;;;;;;;1.65;1.45;;;;;;;24.39;45.42;96281.38;5052199;28;20197;-71
2023/06/15 11:32:26;;;;;;;2.30;1.52;;;;;;;24.70;43.29;96281.28;5051093;28;20789;-70
2023/06/15 11:35:03;;;;;;;2.95;1.70;;;;;;;25.15;42.44;96282.25;5051577;28;20306;-69
2023/06/15 11:37:30;;;;;;;2.65;1.20;;;;;;;24.72;42.76;96279.94;5051071;28;20281;-70